createdAt,value
2023-04-12T00:00:13.910Z,0.00
2023-04-12T00:01:13.869Z,0.00
2023-04-12T00:02:13.963Z,0.00
2023-04-12T00:03:13.965Z,0.00
2023-04-12T00:04:14.064Z,0.00
2023-04-12T00:05:13.950Z,0.00
2023-04-12T00:06:13.848Z,0.00
2023-04-12T00:07:13.816Z,0.00
2023-04-12T00:08:13.819Z,0.00
2023-04-12T00:09:13.813Z,0.00
2023-04-12T00:10:13.783Z,0.00
2023-04-12T00:11:13.789Z,0.00
2023-04-12T00:12:13.768Z,0.00
2023-04-12T00:13:13.782Z,0.00
2023-04-12T00:14:14.054Z,0.00
2023-04-12T00:15:13.730Z,0.00
2023-04-12T00:16:13.750Z,0.00
2023-04-12T00:17:13.708Z,0.00
2023-04-12T00:18:13.717Z,0.00
2023-04-12T00:19:13.678Z,0.00
2023-04-12T00:20:13.652Z,0.00
2023-04-12T00:21:13.810Z,0.00
2023-04-12T00:22:13.708Z,0.00
2023-04-12T00:23:13.647Z,0.00
2023-04-12T00:24:13.661Z,0.00
2023-04-12T00:25:13.649Z,0.00
2023-04-12T00:26:13.608Z,0.00
2023-04-12T00:27:13.612Z,0.00
2023-04-12T00:28:13.601Z,0.00
2023-04-12T00:29:13.579Z,0.00
2023-04-12T00:30:13.581Z,0.00
2023-04-12T00:31:13.601Z,0.00
2023-04-12T00:32:13.543Z,0.00
2023-04-12T00:33:13.540Z,0.00
2023-04-12T00:34:13.680Z,0.00
2023-04-12T00:35:13.548Z,0.00
2023-04-12T00:36:13.542Z,0.00
2023-04-12T00:37:13.495Z,0.00
2023-04-12T00:38:13.488Z,0.00
2023-04-12T00:39:13.464Z,0.00
2023-04-12T00:40:13.515Z,0.00
2023-04-12T00:41:13.447Z,0.00
2023-04-12T00:42:13.417Z,0.00
2023-04-12T00:43:13.419Z,0.00
2023-04-12T00:44:13.513Z,0.00
2023-04-12T00:45:13.400Z,0.00
2023-04-12T00:46:13.440Z,0.00
2023-04-12T00:47:13.400Z,0.00
2023-04-12T00:48:13.386Z,0.00
2023-04-12T00:49:13.366Z,0.00
2023-04-12T00:50:13.342Z,0.00
2023-04-12T00:51:13.372Z,0.00
2023-04-12T00:52:13.316Z,0.00
2023-04-12T00:53:13.335Z,0.00
2023-04-12T00:54:13.307Z,0.00
2023-04-12T00:55:13.288Z,0.00
2023-04-12T00:56:13.301Z,0.00
2023-04-12T00:57:13.263Z,0.00
2023-04-12T00:58:13.265Z,0.00
2023-04-12T00:59:13.256Z,0.00
2023-04-12T01:00:13.242Z,0.00
2023-04-12T01:01:13.266Z,0.00
2023-04-12T01:02:13.343Z,0.00
2023-04-12T01:03:13.418Z,0.00
2023-04-12T01:04:13.278Z,0.00
2023-04-12T01:05:13.184Z,0.00
2023-04-12T01:06:13.153Z,0.00
2023-04-12T01:07:13.166Z,0.00
2023-04-12T01:08:13.142Z,0.00
2023-04-12T01:09:13.126Z,0.00
2023-04-12T01:10:13.115Z,0.00
2023-04-12T01:11:13.144Z,0.00
2023-04-12T01:12:13.476Z,0.00
2023-04-12T01:13:13.083Z,0.00
2023-04-12T01:14:13.111Z,0.00
2023-04-12T01:15:13.216Z,0.00
2023-04-12T01:16:13.053Z,0.00
2023-04-12T01:17:13.045Z,0.00
2023-04-12T01:18:13.357Z,0.00
2023-04-12T01:19:13.038Z,0.00
2023-04-12T01:20:12.993Z,0.00
2023-04-12T01:21:12.997Z,0.00
2023-04-12T01:22:12.960Z,0.00
2023-04-12T01:23:13.489Z,0.00
2023-04-12T01:24:12.961Z,0.00
2023-04-12T01:25:12.997Z,0.00
2023-04-12T01:26:13.004Z,0.00
2023-04-12T01:27:12.935Z,0.00
2023-04-12T01:28:12.912Z,0.00
2023-04-12T01:29:12.932Z,0.00
2023-04-12T01:30:12.878Z,0.00
2023-04-12T01:31:12.913Z,0.00
2023-04-12T01:32:12.848Z,0.00
2023-04-12T01:33:12.882Z,0.00
2023-04-12T01:34:12.845Z,0.00
2023-04-12T01:35:12.839Z,0.00
2023-04-12T01:36:12.914Z,0.00
2023-04-12T01:37:12.835Z,0.00
2023-04-12T01:38:12.971Z,0.00
2023-04-12T01:39:12.786Z,0.00
2023-04-12T01:40:12.788Z,0.00
2023-04-12T01:41:12.763Z,0.00
2023-04-12T01:42:12.751Z,0.00
2023-04-12T01:43:12.768Z,0.00
2023-04-12T01:44:12.744Z,0.00
2023-04-12T01:45:12.738Z,0.00
2023-04-12T01:46:12.839Z,0.00
2023-04-12T01:47:12.723Z,0.00
2023-04-12T01:48:12.731Z,0.00
2023-04-12T01:49:12.688Z,0.00
2023-04-12T01:50:12.664Z,0.00
2023-04-12T01:51:12.696Z,0.00
2023-04-12T01:52:12.655Z,0.00
2023-04-12T01:53:12.649Z,0.00
2023-04-12T01:54:12.646Z,0.00
2023-04-12T01:55:12.624Z,0.00
2023-04-12T01:56:12.597Z,0.00
2023-04-12T01:57:12.573Z,0.00
2023-04-12T01:58:12.586Z,0.00
2023-04-12T01:59:12.588Z,0.00
2023-04-12T02:00:12.565Z,0.00
2023-04-12T02:01:12.565Z,0.00
2023-04-12T02:02:12.701Z,0.00
2023-04-12T02:03:12.827Z,0.00
2023-04-12T02:04:12.553Z,0.00
2023-04-12T02:05:12.494Z,0.00
2023-04-12T02:06:12.499Z,0.00
2023-04-12T02:07:12.518Z,0.00
2023-04-12T02:08:12.460Z,0.00
2023-04-12T02:09:12.580Z,0.00
2023-04-12T02:10:12.444Z,0.00
2023-04-12T02:11:12.425Z,0.00
2023-04-12T02:12:12.489Z,0.00
2023-04-12T02:13:12.401Z,0.00
2023-04-12T02:14:12.411Z,0.00
2023-04-12T02:15:12.434Z,0.00
2023-04-12T02:16:12.499Z,0.00
2023-04-12T02:17:12.353Z,0.00
2023-04-12T02:18:12.416Z,0.00
2023-04-12T02:19:12.510Z,0.00
2023-04-12T02:20:12.368Z,0.00
2023-04-12T02:21:12.320Z,0.00
2023-04-12T02:22:12.310Z,0.00
2023-04-12T02:23:13.177Z,0.00
2023-04-12T02:24:12.337Z,0.00
2023-04-12T02:25:12.272Z,0.00
2023-04-12T02:26:12.304Z,0.00
2023-04-12T02:27:12.244Z,0.00
2023-04-12T02:28:12.250Z,0.00
2023-04-12T02:29:12.209Z,0.00
2023-04-12T02:30:12.216Z,0.00
2023-04-12T02:31:12.296Z,0.00
2023-04-12T02:32:12.188Z,0.00
2023-04-12T02:33:12.225Z,0.00
2023-04-12T02:34:12.299Z,0.00
2023-04-12T02:35:12.188Z,0.00
2023-04-12T02:36:12.158Z,0.00
2023-04-12T02:37:12.146Z,0.00
2023-04-12T02:38:12.157Z,0.00
2023-04-12T02:39:12.152Z,0.00
2023-04-12T02:40:12.134Z,0.00
2023-04-12T02:41:12.096Z,0.00
2023-04-12T02:42:12.118Z,0.00
2023-04-12T02:43:12.375Z,0.00
2023-04-12T02:44:12.227Z,0.00
2023-04-12T02:45:12.045Z,0.00
2023-04-12T02:46:12.073Z,0.00
2023-04-12T02:47:12.034Z,0.00
2023-04-12T02:48:12.084Z,0.00
2023-04-12T02:49:11.998Z,0.00
2023-04-12T02:50:11.988Z,0.00
2023-04-12T02:51:11.958Z,0.00
2023-04-12T02:52:11.980Z,0.00
2023-04-12T02:53:12.151Z,0.00
2023-04-12T02:54:11.948Z,0.00
2023-04-12T02:55:11.946Z,0.00
2023-04-12T02:56:11.938Z,0.00
2023-04-12T02:57:11.900Z,0.00
2023-04-12T02:58:11.928Z,0.00
2023-04-12T02:59:11.932Z,0.00
2023-04-12T03:00:11.926Z,0.00
2023-04-12T03:01:11.896Z,0.00
2023-04-12T03:02:11.911Z,0.00
2023-04-12T03:03:12.000Z,0.00
2023-04-12T03:04:11.968Z,0.00
2023-04-12T03:05:11.824Z,0.00
2023-04-12T03:06:11.805Z,0.00
2023-04-12T03:07:11.808Z,0.00
2023-04-12T03:08:11.827Z,0.00
2023-04-12T03:09:11.791Z,0.00
2023-04-12T03:10:11.791Z,0.00
2023-04-12T03:11:11.740Z,0.00
2023-04-12T03:12:11.742Z,0.00
2023-04-12T03:13:11.738Z,0.00
2023-04-12T03:14:11.736Z,0.00
2023-04-12T03:15:11.700Z,0.00
2023-04-12T03:16:11.741Z,0.00
2023-04-12T03:17:11.702Z,0.00
2023-04-12T03:18:11.731Z,0.00
2023-04-12T03:19:11.668Z,0.00
2023-04-12T03:20:11.663Z,0.00
2023-04-12T03:21:11.641Z,0.00
2023-04-12T03:22:11.628Z,0.00
2023-04-12T03:23:11.661Z,0.00
2023-04-12T03:24:11.622Z,0.00
2023-04-12T03:25:11.582Z,0.00
2023-04-12T03:26:11.599Z,0.00
2023-04-12T03:27:11.593Z,0.00
2023-04-12T03:28:11.570Z,0.00
2023-04-12T03:29:11.571Z,0.00
2023-04-12T03:30:11.585Z,0.00
2023-04-12T03:31:11.659Z,0.00
2023-04-12T03:32:11.793Z,0.00
2023-04-12T03:33:11.495Z,0.00
2023-04-12T03:34:11.510Z,0.00
2023-04-12T03:35:11.504Z,0.00
2023-04-12T03:36:11.476Z,0.00
2023-04-12T03:37:11.539Z,0.00
2023-04-12T03:38:11.462Z,0.00
2023-04-12T03:39:11.445Z,0.00
2023-04-12T03:40:11.438Z,0.00
2023-04-12T03:41:11.436Z,0.00
2023-04-12T03:42:21.585Z,0.00
2023-04-12T03:43:12.381Z,0.00
2023-04-12T03:44:11.384Z,0.00
2023-04-12T03:45:11.385Z,0.00
2023-04-12T03:46:11.409Z,0.00
2023-04-12T03:47:11.351Z,0.00
2023-04-12T03:48:11.338Z,0.00
2023-04-12T03:49:11.340Z,0.00
2023-04-12T03:50:12.281Z,0.00
2023-04-12T03:51:11.295Z,0.00
2023-04-12T03:52:11.303Z,0.00
2023-04-12T03:53:11.271Z,0.00
2023-04-12T03:54:11.297Z,0.00
2023-04-12T03:55:11.293Z,0.00
2023-04-12T03:56:11.250Z,0.00
2023-04-12T03:57:11.214Z,0.00
2023-04-12T03:58:11.237Z,0.00
2023-04-12T03:59:11.206Z,0.00
2023-04-12T04:00:11.214Z,0.00
2023-04-12T04:01:11.211Z,0.00
2023-04-12T04:02:11.221Z,0.00
2023-04-12T04:03:11.212Z,0.00
2023-04-12T04:04:11.384Z,0.00
2023-04-12T04:05:11.218Z,0.00
2023-04-12T04:06:11.161Z,0.00
2023-04-12T04:07:11.158Z,0.00
2023-04-12T04:08:11.119Z,0.00
2023-04-12T04:09:11.134Z,0.00
2023-04-12T04:10:11.099Z,0.00
2023-04-12T04:11:11.079Z,0.00
2023-04-12T04:12:11.141Z,0.00
2023-04-12T04:13:11.061Z,0.00
2023-04-12T04:14:11.045Z,0.00
2023-04-12T04:15:11.074Z,0.00
2023-04-12T04:16:11.115Z,4.00
2023-04-12T04:17:11.006Z,4.00
2023-04-12T04:18:11.052Z,4.00
2023-04-12T04:19:10.989Z,0.00
2023-04-12T04:20:11.038Z,4.00
2023-04-12T04:21:10.967Z,4.00
2023-04-12T04:22:11.000Z,4.00
2023-04-12T04:23:10.929Z,4.00
2023-04-12T04:24:10.938Z,4.00
2023-04-12T04:25:10.923Z,8.00
2023-04-12T04:26:10.976Z,8.00
2023-04-12T04:27:10.915Z,8.00
2023-04-12T04:28:10.896Z,12.00
2023-04-12T04:29:10.879Z,12.00
2023-04-12T04:30:10.883Z,12.00
2023-04-12T04:31:10.882Z,12.00
2023-04-12T04:32:10.992Z,16.00
2023-04-12T04:33:10.832Z,16.00
2023-04-12T04:34:12.732Z,20.00
2023-04-12T04:35:10.825Z,20.00
2023-04-12T04:36:10.805Z,20.00
2023-04-12T04:37:10.812Z,24.00
2023-04-12T04:38:10.829Z,24.00
2023-04-12T04:39:10.862Z,24.00
2023-04-12T04:40:10.811Z,28.00
2023-04-12T04:41:10.749Z,32.00
2023-04-12T04:42:10.775Z,32.00
2023-04-12T04:43:10.729Z,36.00
2023-04-12T04:44:10.732Z,40.00
2023-04-12T04:45:10.701Z,40.00
2023-04-12T04:46:10.847Z,44.00
2023-04-12T04:47:10.671Z,44.00
2023-04-12T04:48:10.734Z,48.00
2023-04-12T04:49:10.657Z,56.00
2023-04-12T04:50:10.761Z,60.00
2023-04-12T04:51:10.632Z,68.00
2023-04-12T04:52:10.626Z,76.00
2023-04-12T04:53:10.607Z,80.00
2023-04-12T04:54:10.610Z,84.00
2023-04-12T04:55:12.645Z,88.00
2023-04-12T04:56:10.599Z,92.00
2023-04-12T04:57:10.557Z,92.00
2023-04-12T04:58:10.567Z,92.00
2023-04-12T04:59:10.595Z,92.00
2023-04-12T05:00:10.554Z,88.00
2023-04-12T05:01:10.562Z,84.00
2023-04-12T05:02:10.629Z,88.00
2023-04-12T05:03:10.565Z,92.00
2023-04-12T05:04:10.580Z,104.00
2023-04-12T05:05:10.483Z,112.00
2023-04-12T05:06:10.487Z,120.00
2023-04-12T05:07:10.449Z,120.00
2023-04-12T05:08:10.460Z,124.00
2023-04-12T05:09:10.456Z,136.00
2023-04-12T05:10:10.426Z,140.00
2023-04-12T05:11:10.404Z,148.00
2023-04-12T05:12:10.505Z,160.00
2023-04-12T05:13:10.511Z,172.00
2023-04-12T05:14:12.433Z,184.00
2023-04-12T05:15:11.980Z,188.00
2023-04-12T05:16:10.478Z,196.00
2023-04-12T05:17:10.344Z,200.00
2023-04-12T05:18:10.346Z,204.00
2023-04-12T05:19:10.313Z,212.00
2023-04-12T05:20:10.354Z,220.00
2023-04-12T05:21:10.294Z,232.00
2023-04-12T05:22:10.286Z,240.00
2023-04-12T05:23:10.278Z,248.00
2023-04-12T05:24:10.282Z,256.00
2023-04-12T05:25:10.325Z,264.00
2023-04-12T05:26:10.268Z,272.00
2023-04-12T05:27:10.232Z,280.00
2023-04-12T05:28:10.220Z,288.00
2023-04-12T05:29:10.189Z,304.00
2023-04-12T05:30:10.220Z,320.00
2023-04-12T05:31:10.246Z,336.00
2023-04-12T05:32:10.214Z,352.00
2023-04-12T05:33:10.158Z,364.00
2023-04-12T05:34:10.165Z,380.00
2023-04-12T05:35:10.134Z,392.00
2023-04-12T05:36:10.125Z,404.00
2023-04-12T05:37:10.147Z,420.00
2023-04-12T05:38:10.114Z,432.00
2023-04-12T05:39:10.097Z,432.00
2023-04-12T05:40:10.100Z,440.00
2023-04-12T05:41:10.068Z,452.00
2023-04-12T05:42:10.084Z,472.00
2023-04-12T05:43:10.049Z,492.00
2023-04-12T05:44:10.089Z,508.00
2023-04-12T05:45:10.025Z,520.00
2023-04-12T05:46:10.072Z,528.00
2023-04-12T05:47:10.001Z,528.00
2023-04-12T05:48:10.110Z,520.00
2023-04-12T05:49:09.977Z,500.00
2023-04-12T05:50:10.022Z,464.00
2023-04-12T05:51:09.954Z,428.00
2023-04-12T05:52:09.962Z,388.00
2023-04-12T05:53:09.973Z,348.00
2023-04-12T05:54:09.918Z,324.00
2023-04-12T05:55:09.927Z,316.00
2023-04-12T05:56:09.918Z,324.00
2023-04-12T05:57:09.963Z,344.00
2023-04-12T05:58:09.883Z,372.00
2023-04-12T05:59:10.027Z,396.00
2023-04-12T06:00:09.868Z,420.00
2023-04-12T06:01:09.830Z,444.00
2023-04-12T06:02:09.968Z,472.00
2023-04-12T06:03:09.940Z,496.00
2023-04-12T06:04:09.965Z,512.00
2023-04-12T06:05:09.836Z,520.00
2023-04-12T06:06:09.837Z,512.00
2023-04-12T06:07:09.786Z,492.00
2023-04-12T06:08:09.765Z,480.00
2023-04-12T06:09:09.762Z,464.00
2023-04-12T06:10:09.794Z,452.00
2023-04-12T06:11:09.743Z,440.00
2023-04-12T06:12:09.741Z,436.00
2023-04-12T06:13:09.778Z,444.00
2023-04-12T06:14:11.767Z,448.00
2023-04-12T06:15:09.697Z,440.00
2023-04-12T06:16:09.731Z,428.00
2023-04-12T06:17:09.684Z,404.00
2023-04-12T06:18:09.646Z,384.00
2023-04-12T06:19:09.678Z,372.00
2023-04-12T06:20:09.751Z,360.00
2023-04-12T06:21:09.839Z,348.00
2023-04-12T06:22:09.615Z,344.00
2023-04-12T06:23:09.619Z,336.00
2023-04-12T06:24:09.601Z,340.00
2023-04-12T06:25:09.591Z,340.00
2023-04-12T06:26:09.613Z,332.00
2023-04-12T06:27:09.563Z,316.00
2023-04-12T06:28:09.586Z,304.00
2023-04-12T06:29:09.555Z,300.00
2023-04-12T06:30:09.516Z,300.00
2023-04-12T06:31:09.623Z,292.00
2023-04-12T06:32:09.531Z,296.00
2023-04-12T06:33:09.562Z,300.00
2023-04-12T06:34:09.483Z,304.00
2023-04-12T06:35:09.483Z,292.00
2023-04-12T06:36:09.471Z,276.00
2023-04-12T06:37:09.565Z,268.00
2023-04-12T06:38:09.420Z,264.00
2023-04-12T06:39:09.447Z,256.00
2023-04-12T06:40:09.411Z,256.00
2023-04-12T06:41:09.651Z,252.00
2023-04-12T06:42:09.388Z,256.00
2023-04-12T06:43:09.433Z,260.00
2023-04-12T06:44:09.372Z,272.00
2023-04-12T06:45:09.348Z,288.00
2023-04-12T06:46:09.356Z,300.00
2023-04-12T06:47:09.549Z,304.00
2023-04-12T06:48:09.407Z,304.00
2023-04-12T06:49:09.490Z,304.00
2023-04-12T06:50:09.323Z,316.00
2023-04-12T06:51:09.294Z,328.00
2023-04-12T06:52:09.277Z,360.00
2023-04-12T06:53:09.317Z,396.00
2023-04-12T06:54:09.248Z,420.00
2023-04-12T06:55:09.286Z,440.00
2023-04-12T06:56:09.285Z,452.00
2023-04-12T06:57:09.214Z,472.00
2023-04-12T06:58:09.223Z,516.00
2023-04-12T06:59:09.219Z,576.00
2023-04-12T07:00:09.303Z,628.00
2023-04-12T07:01:09.218Z,656.00
2023-04-12T07:02:09.174Z,668.00
2023-04-12T07:03:09.294Z,656.00
2023-04-12T07:04:09.219Z,644.00
2023-04-12T07:05:09.131Z,636.00
2023-04-12T07:06:23.807Z,636.00
2023-04-12T07:07:10.116Z,644.00
2023-04-12T07:08:09.165Z,652.00
2023-04-12T07:09:09.092Z,644.00
2023-04-12T07:10:09.085Z,648.00
2023-04-12T07:12:10.043Z,704.00
2023-04-12T07:13:09.043Z,732.00
2023-04-12T07:14:09.058Z,728.00
2023-04-12T07:15:09.036Z,692.00
2023-04-12T07:16:09.025Z,640.00
2023-04-12T07:17:09.021Z,572.00
2023-04-12T07:18:09.020Z,508.00
2023-04-12T07:19:08.983Z,500.00
2023-04-12T07:20:08.972Z,552.00
2023-04-12T07:21:09.025Z,652.00
2023-04-12T07:22:08.972Z,740.00
2023-04-12T07:23:08.944Z,792.00
2023-04-12T07:24:08.943Z,828.00
2023-04-12T07:25:08.910Z,868.00
2023-04-12T07:26:08.922Z,916.00
2023-04-12T07:27:08.914Z,940.00
2023-04-12T07:28:09.186Z,944.00
2023-04-12T07:29:08.886Z,936.00
2023-04-12T07:30:08.853Z,916.00
2023-04-12T07:31:08.847Z,840.00
2023-04-12T07:32:08.857Z,784.00
2023-04-12T07:33:19.009Z,784.00
2023-04-12T07:34:09.958Z,784.00
2023-04-12T07:35:08.826Z,736.00
2023-04-12T07:36:08.825Z,724.00
2023-04-12T07:37:08.787Z,748.00
2023-04-12T07:38:08.755Z,816.00
2023-04-12T07:39:08.783Z,928.00
2023-04-12T07:40:08.769Z,1016.00
2023-04-12T07:41:08.717Z,1100.00
2023-04-12T07:42:08.718Z,1176.00
2023-04-12T07:43:08.715Z,1252.00
2023-04-12T07:44:08.688Z,1352.00
2023-04-12T07:45:08.716Z,1448.00
2023-04-12T07:46:08.949Z,1536.00
2023-04-12T07:47:08.675Z,1572.00
2023-04-12T07:48:08.693Z,1520.00
2023-04-12T07:49:08.648Z,1420.00
2023-04-12T07:50:09.529Z,1260.00
2023-04-12T07:51:08.644Z,1108.00
2023-04-12T07:52:08.612Z,1036.00
2023-04-12T07:53:08.593Z,984.00
2023-04-12T07:54:08.621Z,924.00
2023-04-12T07:55:08.598Z,848.00
2023-04-12T07:56:08.623Z,796.00
2023-04-12T07:57:08.561Z,768.00
2023-04-12T07:58:08.551Z,768.00
2023-04-12T07:59:08.557Z,768.00
2023-04-12T08:00:08.528Z,748.00
2023-04-12T08:01:08.554Z,724.00
2023-04-12T08:02:08.702Z,700.00
2023-04-12T08:03:08.704Z,676.00
2023-04-12T08:04:08.610Z,704.00
2023-04-12T08:05:08.499Z,780.00
2023-04-12T08:06:08.619Z,848.00
2023-04-12T08:07:08.440Z,888.00
2023-04-12T08:08:08.458Z,876.00
2023-04-12T08:09:08.441Z,836.00
2023-04-12T08:10:08.403Z,760.00
2023-04-12T08:11:08.404Z,692.00
2023-04-12T08:12:08.405Z,684.00
2023-04-12T08:13:08.373Z,716.00
2023-04-12T08:14:08.356Z,768.00
2023-04-12T08:15:08.369Z,812.00
2023-04-12T08:16:08.483Z,912.00
2023-04-12T08:17:08.328Z,976.00
2023-04-12T08:18:08.322Z,1028.00
2023-04-12T08:19:08.304Z,1056.00
2023-04-12T08:20:08.342Z,1084.00
2023-04-12T08:21:08.283Z,1112.00
2023-04-12T08:22:08.330Z,1132.00
2023-04-12T08:23:08.291Z,1208.00
2023-04-12T08:24:08.253Z,1296.00
2023-04-12T08:25:08.255Z,1380.00
2023-04-12T08:26:08.672Z,1480.00
2023-04-12T08:27:08.280Z,1528.00
2023-04-12T08:28:08.209Z,1532.00
2023-04-12T08:29:08.238Z,1452.00
2023-04-12T08:30:08.187Z,1380.00
2023-04-12T08:31:08.209Z,1316.00
2023-04-12T08:32:08.222Z,1288.00
2023-04-12T08:33:08.271Z,1360.00
2023-04-12T08:34:08.125Z,1532.00
2023-04-12T08:35:08.155Z,1668.00
2023-04-12T08:36:08.163Z,1700.00
2023-04-12T08:37:08.116Z,1768.00
2023-04-12T08:38:08.195Z,1824.00
2023-04-12T08:39:08.087Z,1756.00
2023-04-12T08:40:08.116Z,1660.00
2023-04-12T08:41:08.053Z,1596.00
2023-04-12T08:42:08.064Z,1560.00
2023-04-12T08:43:08.356Z,1640.00
2023-04-12T08:44:08.266Z,1772.00
2023-04-12T08:45:08.038Z,1908.00
2023-04-12T08:46:08.052Z,1956.00
2023-04-12T08:47:07.994Z,1964.00
2023-04-12T08:48:08.002Z,1976.00
2023-04-12T08:49:08.295Z,1968.00
2023-04-12T08:50:07.987Z,1916.00
2023-04-12T08:51:07.949Z,1812.00
2023-04-12T08:52:07.961Z,1772.00
2023-04-12T08:53:07.934Z,1784.00
2023-04-12T08:54:07.943Z,1752.00
2023-04-12T08:55:07.928Z,1652.00
2023-04-12T08:56:07.895Z,1496.00
2023-04-12T08:57:07.896Z,1364.00
2023-04-12T08:58:07.895Z,1332.00
2023-04-12T08:59:07.867Z,1308.00
2023-04-12T09:00:07.907Z,1256.00
2023-04-12T09:01:07.866Z,1208.00
2023-04-12T09:02:07.962Z,1196.00
2023-04-12T09:03:08.091Z,1176.00
2023-04-12T09:04:08.099Z,1128.00
2023-04-12T09:05:07.990Z,1048.00
2023-04-12T09:06:07.772Z,988.00
2023-04-12T09:07:07.763Z,908.00
2023-04-12T09:08:07.784Z,872.00
2023-04-12T09:09:08.319Z,960.00
2023-04-12T09:10:07.971Z,1096.00
2023-04-12T09:11:07.730Z,1144.00
2023-04-12T09:12:07.729Z,1140.00
2023-04-12T09:13:07.720Z,1164.00
2023-04-12T09:14:07.739Z,1164.00
2023-04-12T09:15:07.724Z,1116.00
2023-04-12T09:16:07.761Z,1132.00
2023-04-12T09:17:07.717Z,1196.00
2023-04-12T09:18:07.737Z,1248.00
2023-04-12T09:19:07.642Z,1276.00
2023-04-12T09:20:07.616Z,1340.00
2023-04-12T09:21:07.631Z,1432.00
2023-04-12T09:22:07.600Z,1508.00
2023-04-12T09:23:07.653Z,1520.00
2023-04-12T09:24:07.566Z,1528.00
2023-04-12T09:25:07.581Z,1544.00
2023-04-12T09:26:07.556Z,1576.00
2023-04-12T09:27:07.599Z,1568.00
2023-04-12T09:28:07.539Z,1572.00
2023-04-12T09:29:07.538Z,1584.00
2023-04-12T09:30:07.612Z,1640.00
2023-04-12T09:31:07.579Z,1732.00
2023-04-12T09:32:07.502Z,1856.00
2023-04-12T09:33:07.542Z,1916.00
2023-04-12T09:34:07.466Z,1916.00
2023-04-12T09:35:07.467Z,1644.00
2023-04-12T09:36:07.471Z,1404.00
2023-04-12T09:37:07.480Z,1416.00
2023-04-12T09:38:07.440Z,1512.00
2023-04-12T09:39:07.416Z,1768.00
2023-04-12T09:40:07.425Z,1812.00
2023-04-12T09:41:07.380Z,1696.00
2023-04-12T09:42:14.962Z,1756.00
2023-04-12T09:43:08.405Z,1644.00
2023-04-12T09:44:07.373Z,1524.00
2023-04-12T09:45:07.355Z,1544.00
2023-04-12T09:46:07.385Z,1448.00
2023-04-12T09:47:07.348Z,1360.00
2023-04-12T09:48:07.340Z,1424.00
2023-04-12T09:49:07.324Z,1460.00
2023-04-12T09:50:07.358Z,1488.00
2023-04-12T09:51:07.293Z,1428.00
2023-04-12T09:52:07.255Z,1332.00
2023-04-12T09:53:07.266Z,1216.00
2023-04-12T09:54:07.236Z,1144.00
2023-04-12T09:55:07.264Z,1056.00
2023-04-12T09:56:07.226Z,952.00
2023-04-12T09:57:07.223Z,856.00
2023-04-12T09:58:07.226Z,784.00
2023-04-12T09:59:07.226Z,824.00
2023-04-12T10:00:07.183Z,928.00
2023-04-12T10:01:07.221Z,1124.00
2023-04-12T10:02:07.295Z,1248.00
2023-04-12T10:03:07.430Z,1292.00
2023-04-12T10:04:07.272Z,1256.00
2023-04-12T10:05:07.310Z,1308.00
2023-04-12T10:06:07.108Z,1232.00
2023-04-12T10:07:07.623Z,1140.00
2023-04-12T10:08:07.108Z,1100.00
2023-04-12T10:09:07.148Z,1160.00
2023-04-12T10:10:07.372Z,1284.00
2023-04-12T10:11:07.102Z,1412.00
2023-04-12T10:12:07.038Z,1388.00
2023-04-12T10:13:07.114Z,1364.00
2023-04-12T10:14:07.053Z,1464.00
2023-04-12T10:15:07.016Z,1480.00
2023-04-12T10:16:07.052Z,1388.00
2023-04-12T10:17:07.002Z,1480.00
2023-04-12T10:18:07.030Z,1652.00
2023-04-12T10:19:07.006Z,1892.00
2023-04-12T10:20:06.950Z,2108.00
2023-04-12T10:21:06.984Z,2272.00
2023-04-12T10:22:07.016Z,2264.00
2023-04-12T10:23:06.905Z,2152.00
2023-04-12T10:24:06.907Z,2116.00
2023-04-12T10:25:06.909Z,2228.00
2023-04-12T10:26:06.891Z,2356.00
2023-04-12T10:27:06.879Z,2284.00
2023-04-12T10:28:06.896Z,2172.00
2023-04-12T10:29:06.876Z,2060.00
2023-04-12T10:30:06.850Z,2004.00
2023-04-12T10:31:06.868Z,1904.00
2023-04-12T10:32:06.857Z,2032.00
2023-04-12T10:33:06.835Z,2244.00
2023-04-12T10:34:06.866Z,2396.00
2023-04-12T10:35:06.797Z,2500.00
2023-04-12T10:36:07.039Z,2676.00
2023-04-12T10:37:06.752Z,2600.00
2023-04-12T10:38:06.760Z,2376.00
2023-04-12T10:39:07.054Z,2120.00
2023-04-12T10:40:06.745Z,1892.00
2023-04-12T10:41:06.736Z,1772.00
2023-04-12T10:42:06.719Z,1796.00
2023-04-12T10:43:06.673Z,1608.00
2023-04-12T10:44:06.725Z,1404.00
2023-04-12T10:45:06.659Z,1552.00
2023-04-12T10:46:06.893Z,1780.00
2023-04-12T10:47:06.687Z,2184.00
2023-04-12T10:48:06.763Z,2428.00
2023-04-12T10:49:06.629Z,2388.00
2023-04-12T10:50:06.635Z,2104.00
2023-04-12T10:51:06.639Z,1704.00
2023-04-12T10:52:06.615Z,1244.00
2023-04-12T10:53:06.592Z,1348.00
2023-04-12T10:54:06.598Z,1608.00
2023-04-12T10:55:06.595Z,1720.00
2023-04-12T10:56:06.591Z,1672.00
2023-04-12T10:57:06.622Z,1584.00
2023-04-12T10:58:06.533Z,1516.00
2023-04-12T10:59:07.535Z,1804.00
2023-04-12T11:00:06.521Z,2132.00
2023-04-12T11:01:06.622Z,2308.00
2023-04-12T11:02:06.745Z,2296.00
2023-04-12T11:03:06.693Z,2388.00
2023-04-12T11:04:06.628Z,2564.00
2023-04-12T11:05:06.513Z,2420.00
2023-04-12T11:06:20.157Z,2216.00
2023-04-12T11:07:07.451Z,2568.00
2023-04-12T11:08:06.439Z,3268.00
2023-04-12T11:09:06.458Z,2868.00
2023-04-12T11:10:06.446Z,3504.00
2023-04-12T11:11:06.388Z,2792.00
2023-04-12T11:12:08.159Z,2808.00
2023-04-12T11:13:06.603Z,3244.00
2023-04-12T11:14:06.349Z,3196.00
2023-04-12T11:15:06.409Z,3252.00
2023-04-12T11:16:06.379Z,2808.00
2023-04-12T11:17:06.505Z,2552.00
2023-04-12T11:18:06.371Z,2136.00
2023-04-12T11:19:06.369Z,1892.00
2023-04-12T11:20:06.333Z,1840.00
2023-04-12T11:21:06.474Z,1668.00
2023-04-12T11:22:06.307Z,1272.00
2023-04-12T11:23:06.280Z,1548.00
2023-04-12T11:24:06.284Z,1796.00
2023-04-12T11:25:06.228Z,1916.00
2023-04-12T11:26:06.212Z,1928.00
2023-04-12T11:27:06.203Z,2340.00
2023-04-12T11:28:17.174Z,2228.00
2023-04-12T11:29:07.186Z,1896.00
2023-04-12T11:30:06.186Z,1636.00
2023-04-12T11:31:06.295Z,1272.00
2023-04-12T11:32:06.250Z,1044.00
2023-04-12T11:33:06.179Z,1012.00
2023-04-12T11:34:06.132Z,1068.00
2023-04-12T11:35:06.311Z,1168.00
2023-04-12T11:36:06.168Z,1476.00
2023-04-12T11:37:06.086Z,1716.00
2023-04-12T11:38:06.106Z,1856.00
2023-04-12T11:39:06.097Z,1808.00
2023-04-12T11:40:06.084Z,2052.00
2023-04-12T11:41:06.061Z,2192.00
2023-04-12T11:42:06.033Z,2072.00
2023-04-12T11:43:06.033Z,2088.00
2023-04-12T11:44:06.045Z,1916.00
2023-04-12T11:45:13.382Z,1696.00
2023-04-12T11:46:07.010Z,1684.00
2023-04-12T11:47:05.999Z,1596.00
2023-04-12T11:48:05.992Z,1480.00
2023-04-12T11:49:05.970Z,1604.00
2023-04-12T11:50:05.945Z,1772.00
2023-04-12T11:51:11.500Z,1788.00
2023-04-12T11:52:07.318Z,1496.00
2023-04-12T11:53:05.910Z,1276.00
2023-04-12T11:54:05.928Z,1036.00
2023-04-12T11:55:05.905Z,928.00
2023-04-12T11:56:05.966Z,784.00
2023-04-12T11:57:06.034Z,612.00
2023-04-12T11:58:05.875Z,512.00
2023-04-12T11:59:06.039Z,496.00
2023-04-12T12:00:05.904Z,640.00
2023-04-12T12:01:05.839Z,904.00
2023-04-12T12:02:20.954Z,932.00
2023-04-12T12:03:08.158Z,872.00
2023-04-12T12:04:06.423Z,816.00
2023-04-12T12:05:06.054Z,812.00
2023-04-12T12:06:06.185Z,736.00
2023-04-12T12:07:05.988Z,776.00
2023-04-12T12:08:05.755Z,848.00
2023-04-12T12:09:05.739Z,824.00
2023-04-12T12:10:05.751Z,784.00
2023-04-12T12:11:08.550Z,592.00
2023-04-12T12:12:05.722Z,536.00
2023-04-12T12:13:05.694Z,596.00
2023-04-12T12:14:05.671Z,736.00
2023-04-12T12:15:05.708Z,776.00
2023-04-12T12:16:05.714Z,756.00
2023-04-12T12:17:05.636Z,740.00
2023-04-12T12:18:05.698Z,872.00
2023-04-12T12:19:05.622Z,1080.00
2023-04-12T12:20:05.625Z,1340.00
2023-04-12T12:21:05.621Z,1580.00
2023-04-12T12:22:05.591Z,1652.00
2023-04-12T12:23:05.613Z,1632.00
2023-04-12T12:24:05.575Z,1524.00
2023-04-12T12:25:05.543Z,1636.00
2023-04-12T12:26:18.515Z,1884.00
2023-04-12T12:27:06.536Z,1844.00
2023-04-12T12:28:05.810Z,2000.00
2023-04-12T12:29:05.530Z,2188.00
2023-04-12T12:30:05.542Z,2196.00
2023-04-12T12:31:05.531Z,2004.00
2023-04-12T12:32:05.499Z,2012.00
2023-04-12T12:33:05.567Z,2120.00
2023-04-12T12:34:08.485Z,2248.00
2023-04-12T12:35:05.436Z,2432.00
2023-04-12T12:36:05.528Z,2400.00
2023-04-12T12:37:05.457Z,2096.00
2023-04-12T12:38:05.423Z,1680.00
2023-04-12T12:39:05.423Z,1476.00